createdAt,value
2023-05-14T00:00:51.015Z,2022.00
2023-05-14T00:01:51.014Z,2000.00
2023-05-14T00:02:51.107Z,2017.00
2023-05-14T00:03:51.044Z,1999.00
2023-05-14T00:04:50.962Z,1998.00
2023-05-14T00:05:50.968Z,2003.00
2023-05-14T00:06:50.988Z,2011.00
2023-05-14T00:07:50.961Z,2004.00
2023-05-14T00:08:50.942Z,1993.00
2023-05-14T00:09:50.973Z,1996.00
2023-05-14T00:10:50.906Z,2000.00
2023-05-14T00:11:50.940Z,2006.00
2023-05-14T00:12:50.923Z,1989.00
2023-05-14T00:13:50.891Z,1998.00
2023-05-14T00:14:50.889Z,1989.00
2023-05-14T00:15:50.960Z,2004.00
2023-05-14T00:16:50.980Z,1991.00
2023-05-14T00:17:51.037Z,1988.00
2023-05-14T00:18:51.055Z,1988.00
2023-05-14T00:19:50.982Z,1989.00
2023-05-14T00:20:50.990Z,1989.00
2023-05-14T00:21:50.978Z,2003.00
2023-05-14T00:22:50.967Z,1985.00
2023-05-14T00:23:50.960Z,1991.00
2023-05-14T00:24:50.981Z,1995.00
2023-05-14T00:25:50.998Z,1973.00
2023-05-14T00:26:50.973Z,2003.00
2023-05-14T00:27:50.989Z,1980.00
2023-05-14T00:28:51.009Z,1977.00
2023-05-14T00:29:50.946Z,1989.00
2023-05-14T00:30:50.934Z,1982.00
2023-05-14T00:31:51.055Z,1985.00
2023-05-14T00:32:50.918Z,1978.00
2023-05-14T00:33:50.896Z,1984.00
2023-05-14T00:34:50.900Z,1977.00
2023-05-14T00:35:50.891Z,1964.00
2023-05-14T00:36:50.898Z,1973.00
2023-05-14T00:37:50.890Z,1973.00
2023-05-14T00:38:50.895Z,1963.00
2023-05-14T00:39:50.887Z,1958.00
2023-05-14T00:40:50.916Z,1966.00
2023-05-14T00:41:50.931Z,1976.00
2023-05-14T00:42:50.991Z,1962.00
2023-05-14T00:43:51.036Z,1969.00
2023-05-14T00:44:51.040Z,1961.00
2023-05-14T00:45:51.070Z,1960.00
2023-05-14T00:46:51.123Z,1957.00
2023-05-14T00:47:51.170Z,1963.00
2023-05-14T00:48:51.137Z,1968.00
2023-05-14T00:49:51.180Z,1956.00
2023-05-14T00:50:51.177Z,1947.00
2023-05-14T00:51:51.183Z,1966.00
2023-05-14T00:52:51.225Z,1958.00
2023-05-14T00:53:51.243Z,1959.00
2023-05-14T00:54:51.258Z,1951.00
2023-05-14T00:55:51.277Z,1945.00
2023-05-14T00:56:51.271Z,1962.00
2023-05-14T00:57:51.319Z,1951.00
2023-05-14T00:58:51.355Z,1958.00
2023-05-14T00:59:51.404Z,1943.00
2023-05-14T01:00:51.425Z,1949.00
2023-05-14T01:01:51.404Z,1938.00
2023-05-14T01:02:51.469Z,1938.00
2023-05-14T01:03:51.472Z,1939.00
2023-05-14T01:04:51.424Z,1944.00
2023-05-14T01:05:51.404Z,1942.00
2023-05-14T01:06:51.415Z,1950.00
2023-05-14T01:07:51.413Z,1947.00
2023-05-14T01:08:51.406Z,1940.00
2023-05-14T01:09:51.420Z,1941.00
2023-05-14T01:10:51.414Z,1944.00
2023-05-14T01:11:51.408Z,1941.00
2023-05-14T01:12:51.420Z,1951.00
2023-05-14T01:13:51.414Z,1953.00
2023-05-14T01:14:51.422Z,1947.00
2023-05-14T01:15:51.419Z,1948.00
2023-05-14T01:16:51.513Z,1949.00
2023-05-14T01:17:51.452Z,1950.00
2023-05-14T01:18:51.417Z,1950.00
2023-05-14T01:19:51.397Z,1952.00
2023-05-14T01:20:51.393Z,1949.00
2023-05-14T01:21:51.393Z,1951.00
2023-05-14T01:22:51.394Z,1950.00
2023-05-14T01:23:51.372Z,1953.00
2023-05-14T01:24:51.373Z,1952.00
2023-05-14T01:25:51.368Z,1955.00
2023-05-14T01:26:51.366Z,1953.00
2023-05-14T01:27:51.377Z,1949.00
2023-05-14T01:28:51.355Z,1943.00
2023-05-14T01:29:51.341Z,1928.00
2023-05-14T01:30:51.344Z,1939.00
2023-05-14T01:31:51.466Z,1941.00
2023-05-14T01:32:51.626Z,1944.00
2023-05-14T01:33:51.314Z,1941.00
2023-05-14T01:34:51.348Z,1932.00
2023-05-14T01:35:51.316Z,1935.00
2023-05-14T01:36:51.309Z,1932.00
2023-05-14T01:37:51.302Z,1941.00
2023-05-14T01:38:51.291Z,1933.00
2023-05-14T01:39:51.285Z,1915.00
2023-05-14T01:40:51.316Z,1935.00
2023-05-14T01:41:51.279Z,1934.00
2023-05-14T01:42:51.280Z,1926.00
2023-05-14T01:43:51.258Z,1922.00
2023-05-14T01:44:51.258Z,1923.00
2023-05-14T01:45:51.366Z,1934.00
2023-05-14T01:46:51.234Z,1907.00
2023-05-14T01:47:51.292Z,1914.00
2023-05-14T01:48:51.232Z,1928.00
2023-05-14T01:49:51.240Z,1922.00
2023-05-14T01:50:51.237Z,1915.00
2023-05-14T01:51:51.256Z,1912.00
2023-05-14T01:52:51.228Z,1909.00
2023-05-14T01:53:51.312Z,1913.00
2023-05-14T01:54:51.414Z,1899.00
2023-05-14T01:55:51.417Z,1902.00
2023-05-14T01:56:51.425Z,1903.00
2023-05-14T01:57:51.414Z,1912.00
2023-05-14T01:58:51.415Z,1901.00
2023-05-14T01:59:51.415Z,1905.00
2023-05-14T02:00:51.480Z,1892.00
2023-05-14T02:01:51.496Z,1896.00
2023-05-14T02:02:51.539Z,1895.00
2023-05-14T02:03:51.506Z,1906.00
2023-05-14T02:04:51.465Z,1898.00
2023-05-14T02:05:51.525Z,1882.00
2023-05-14T02:06:51.511Z,1883.00
2023-05-14T02:07:51.504Z,1886.00
2023-05-14T02:08:51.515Z,1889.00
2023-05-14T02:09:51.501Z,1902.00
2023-05-14T02:10:51.520Z,1902.00
2023-05-14T02:11:51.508Z,1898.00
2023-05-14T02:12:51.504Z,1899.00
2023-05-14T02:13:51.511Z,1893.00
2023-05-14T02:14:51.514Z,1904.00
2023-05-14T02:15:51.527Z,1897.00
2023-05-14T02:16:51.536Z,1916.00
2023-05-14T02:17:51.622Z,1900.00
2023-05-14T02:18:51.559Z,1887.00
2023-05-14T02:19:51.548Z,1882.00
2023-05-14T02:20:51.554Z,1892.00
2023-05-14T02:21:51.545Z,1887.00
2023-05-14T02:22:51.550Z,1885.00
2023-05-14T02:23:51.548Z,1896.00
2023-05-14T02:24:51.583Z,1885.00
2023-05-14T02:25:51.532Z,1885.00
2023-05-14T02:26:51.557Z,1895.00
2023-05-14T02:27:51.545Z,1877.00
2023-05-14T02:28:51.564Z,1878.00
2023-05-14T02:29:51.680Z,1883.00
2023-05-14T02:30:51.782Z,1872.00
2023-05-14T02:31:51.987Z,1863.00
2023-05-14T02:32:51.959Z,1871.00
2023-05-14T02:33:51.899Z,1885.00
2023-05-14T02:34:51.901Z,1865.00
2023-05-14T02:35:51.926Z,1859.00
2023-05-14T02:36:51.992Z,1869.00
2023-05-14T02:37:52.102Z,1864.00
2023-05-14T02:38:52.196Z,1888.00
2023-05-14T02:39:52.310Z,1876.00
2023-05-14T02:40:52.431Z,1861.00
2023-05-14T02:41:52.512Z,1855.00
2023-05-14T02:42:52.628Z,1868.00
2023-05-14T02:43:52.718Z,1867.00
2023-05-14T02:44:52.824Z,1856.00
2023-05-14T02:45:52.942Z,1857.00
2023-05-14T02:46:53.073Z,1862.00
2023-05-14T02:47:53.091Z,1846.00
2023-05-14T02:48:53.051Z,1863.00
2023-05-14T02:49:53.057Z,1856.00
2023-05-14T02:50:53.084Z,1857.00
2023-05-14T02:51:53.063Z,1859.00
2023-05-14T02:52:53.176Z,1839.00
2023-05-14T02:53:53.262Z,1867.00
2023-05-14T02:54:53.375Z,1851.00
2023-05-14T02:55:53.477Z,1855.00
2023-05-14T02:56:53.564Z,1841.00
2023-05-14T02:57:53.592Z,1839.00
2023-05-14T02:58:53.609Z,1851.00
2023-05-14T02:59:53.605Z,1854.00
2023-05-14T03:00:53.681Z,1844.00
2023-05-14T03:01:53.785Z,1839.00
2023-05-14T03:02:53.970Z,1838.00
2023-05-14T03:03:53.840Z,1799.00
2023-05-14T03:04:53.864Z,1758.00
2023-05-14T03:05:53.860Z,1720.00
2023-05-14T03:06:53.865Z,1696.00
2023-05-14T03:07:53.898Z,1643.00
2023-05-14T03:08:53.900Z,1597.00
2023-05-14T03:09:53.916Z,1587.00
2023-05-14T03:10:53.945Z,1531.00
2023-05-14T03:11:53.962Z,1492.00
2023-05-14T03:12:54.015Z,1455.00
2023-05-14T03:13:54.038Z,1420.00
2023-05-14T03:14:54.058Z,1401.00
2023-05-14T03:15:54.115Z,1360.00
2023-05-14T03:16:54.169Z,1338.00
2023-05-14T03:17:54.209Z,1314.00
2023-05-14T03:18:54.225Z,1289.00
2023-05-14T03:19:54.145Z,1268.00
2023-05-14T03:20:54.164Z,1239.00
2023-05-14T03:21:54.152Z,1199.00
2023-05-14T03:22:54.152Z,1196.00
2023-05-14T03:23:54.165Z,1183.00
2023-05-14T03:24:54.148Z,1128.00
2023-05-14T03:25:54.165Z,1124.00
2023-05-14T03:26:54.164Z,1090.00
2023-05-14T03:27:54.158Z,1067.00
2023-05-14T03:28:54.166Z,1057.00
2023-05-14T03:29:54.137Z,1025.00
2023-05-14T03:30:54.212Z,1025.00
2023-05-14T03:31:54.169Z,991.00
2023-05-14T03:32:54.202Z,970.00
2023-05-14T03:33:54.251Z,949.00
2023-05-14T03:34:54.304Z,958.00
2023-05-14T03:35:54.374Z,933.00
2023-05-14T03:36:54.442Z,914.00
2023-05-14T03:37:54.513Z,890.00
2023-05-14T03:38:54.555Z,881.00
2023-05-14T03:39:54.610Z,880.00
2023-05-14T03:40:54.675Z,856.00
2023-05-14T03:41:54.734Z,839.00
2023-05-14T03:42:54.810Z,853.00
2023-05-14T03:43:54.853Z,817.00
2023-05-14T03:44:54.853Z,826.00
2023-05-14T03:45:54.892Z,812.00
2023-05-14T03:46:54.950Z,820.00
2023-05-14T03:47:55.053Z,773.00
2023-05-14T03:48:55.079Z,778.00
2023-05-14T03:49:55.088Z,768.00
2023-05-14T03:50:55.140Z,737.00
2023-05-14T03:51:55.180Z,743.00
2023-05-14T03:52:55.185Z,720.00
2023-05-14T03:53:55.219Z,699.00
2023-05-14T03:54:55.211Z,709.00
2023-05-14T03:55:55.222Z,693.00
2023-05-14T03:56:55.228Z,703.00
2023-05-14T03:57:55.243Z,681.00
2023-05-14T03:58:55.238Z,669.00
2023-05-14T03:59:55.260Z,675.00
2023-05-14T04:00:55.260Z,662.00
2023-05-14T04:01:55.275Z,658.00
2023-05-14T04:02:55.421Z,663.00
2023-05-14T04:03:55.543Z,657.00
2023-05-14T04:04:55.341Z,660.00
2023-05-14T04:05:55.314Z,659.00
2023-05-14T04:06:55.334Z,658.00
2023-05-14T04:07:55.350Z,651.00
2023-05-14T04:08:55.371Z,660.00
2023-05-14T04:09:55.385Z,658.00
2023-05-14T04:10:55.405Z,656.00
2023-05-14T04:11:55.411Z,655.00
2023-05-14T04:12:55.442Z,653.00
2023-05-14T04:13:55.462Z,650.00
2023-05-14T04:14:55.483Z,644.00
2023-05-14T04:15:55.515Z,645.00
2023-05-14T04:16:55.533Z,646.00
2023-05-14T04:17:55.572Z,649.00
2023-05-14T04:18:55.583Z,645.00
2023-05-14T04:19:55.609Z,644.00
2023-05-14T04:20:55.631Z,640.00
2023-05-14T04:21:55.656Z,639.00
2023-05-14T04:22:55.708Z,640.00
2023-05-14T04:23:55.708Z,640.00
2023-05-14T04:24:55.737Z,635.00
2023-05-14T04:25:55.787Z,632.00
2023-05-14T04:26:55.792Z,626.00
2023-05-14T04:27:55.826Z,625.00
2023-05-14T04:28:55.844Z,622.00
2023-05-14T04:29:55.883Z,618.00
2023-05-14T04:30:55.913Z,614.00
2023-05-14T04:31:55.992Z,612.00
2023-05-14T04:32:55.994Z,610.00
2023-05-14T04:33:56.015Z,607.00
2023-05-14T04:34:56.043Z,609.00
2023-05-14T04:35:56.072Z,605.00
2023-05-14T04:36:56.096Z,603.00
2023-05-14T04:37:56.120Z,602.00
2023-05-14T04:38:56.152Z,598.00
2023-05-14T04:39:56.224Z,597.00
2023-05-14T04:40:56.185Z,597.00
2023-05-14T04:41:56.259Z,597.00
2023-05-14T04:42:56.204Z,598.00
2023-05-14T04:43:56.233Z,599.00
2023-05-14T04:44:56.236Z,604.00
2023-05-14T04:45:56.332Z,602.00
2023-05-14T04:46:56.244Z,603.00
2023-05-14T04:47:56.281Z,606.00
2023-05-14T04:48:56.262Z,607.00
2023-05-14T04:49:56.276Z,608.00
2023-05-14T04:50:56.284Z,608.00
2023-05-14T04:51:56.284Z,614.00
2023-05-14T04:52:56.280Z,612.00
2023-05-14T04:53:56.292Z,606.00
2023-05-14T04:54:56.276Z,607.00
2023-05-14T04:55:56.305Z,608.00
2023-05-14T04:56:56.306Z,605.00
2023-05-14T04:57:56.326Z,607.00
2023-05-14T04:58:56.316Z,609.00
2023-05-14T04:59:56.322Z,610.00
2023-05-14T05:00:56.406Z,614.00
2023-05-14T05:01:56.415Z,612.00
2023-05-14T05:02:56.448Z,616.00
2023-05-14T05:03:56.499Z,615.00
2023-05-14T05:04:56.513Z,614.00
2023-05-14T05:05:56.584Z,610.00
2023-05-14T05:06:56.591Z,615.00
2023-05-14T05:07:56.650Z,613.00
2023-05-14T05:08:56.678Z,615.00
2023-05-14T05:09:56.724Z,618.00
2023-05-14T05:10:56.773Z,617.00
2023-05-14T05:11:56.814Z,622.00
2023-05-14T05:12:56.846Z,619.00
2023-05-14T05:13:56.894Z,620.00
2023-05-14T05:14:56.945Z,618.00
2023-05-14T05:15:57.040Z,617.00
2023-05-14T05:16:57.033Z,615.00
2023-05-14T05:17:57.212Z,613.00
2023-05-14T05:18:57.166Z,610.00
2023-05-14T05:19:57.166Z,611.00
2023-05-14T05:20:57.202Z,605.00
2023-05-14T05:21:57.248Z,601.00
2023-05-14T05:22:57.288Z,597.00
2023-05-14T05:23:57.337Z,594.00
2023-05-14T05:24:57.374Z,594.00
2023-05-14T05:25:57.446Z,593.00
2023-05-14T05:26:57.467Z,590.00
2023-05-14T05:27:57.529Z,587.00
2023-05-14T05:28:57.558Z,590.00
2023-05-14T05:29:57.621Z,585.00
2023-05-14T05:30:57.677Z,586.00
2023-05-14T05:31:57.692Z,583.00
2023-05-14T05:32:57.860Z,583.00
2023-05-14T05:33:57.786Z,575.00
2023-05-14T05:34:57.836Z,573.00
2023-05-14T05:35:57.882Z,570.00
2023-05-14T05:36:57.922Z,563.00
2023-05-14T05:38:00.502Z,558.00
2023-05-14T05:38:57.977Z,564.00
2023-05-14T05:39:57.985Z,560.00
2023-05-14T05:40:57.988Z,545.00
2023-05-14T05:41:57.999Z,546.00
2023-05-14T05:42:57.998Z,545.00
2023-05-14T05:43:58.017Z,543.00
2023-05-14T05:44:58.028Z,548.00
2023-05-14T05:45:58.048Z,539.00
2023-05-14T05:46:58.094Z,538.00
2023-05-14T05:47:58.081Z,539.00
2023-05-14T05:48:58.060Z,540.00
2023-05-14T05:49:58.074Z,540.00
2023-05-14T05:50:58.095Z,540.00
2023-05-14T05:51:58.090Z,537.00
2023-05-14T05:52:58.094Z,533.00
2023-05-14T05:53:58.105Z,542.00
2023-05-14T05:54:58.127Z,532.00
2023-05-14T05:55:58.141Z,536.00
2023-05-14T05:56:58.190Z,529.00
2023-05-14T05:57:58.228Z,529.00
2023-05-14T05:58:58.279Z,527.00
2023-05-14T05:59:58.327Z,523.00
2023-05-14T06:00:58.386Z,523.00
2023-05-14T06:01:58.468Z,520.00
2023-05-14T06:02:58.513Z,511.00
2023-05-14T06:03:58.548Z,509.00
2023-05-14T06:04:58.591Z,513.00
2023-05-14T06:05:58.646Z,513.00
2023-05-14T06:06:58.688Z,507.00
2023-05-14T06:07:58.741Z,503.00
2023-05-14T06:08:58.784Z,502.00
2023-05-14T06:09:58.830Z,499.00
2023-05-14T06:10:58.882Z,501.00
2023-05-14T06:11:58.940Z,503.00
2023-05-14T06:12:58.975Z,502.00
2023-05-14T06:13:59.038Z,504.00
2023-05-14T06:14:59.073Z,501.00
2023-05-14T06:15:59.156Z,506.00
2023-05-14T06:16:59.184Z,509.00
2023-05-14T06:17:59.269Z,520.00
2023-05-14T06:18:59.281Z,514.00
2023-05-14T06:19:59.312Z,514.00
2023-05-14T06:20:59.363Z,516.00
2023-05-14T06:21:59.426Z,514.00
2023-05-14T06:22:59.436Z,510.00
2023-05-14T06:23:59.489Z,515.00
2023-05-14T06:24:59.529Z,510.00
2023-05-14T06:25:59.589Z,510.00
2023-05-14T06:26:59.620Z,505.00
2023-05-14T06:27:59.665Z,504.00
2023-05-14T06:28:59.712Z,500.00
2023-05-14T06:29:59.751Z,501.00
2023-05-14T06:30:59.794Z,500.00
2023-05-14T06:31:59.893Z,508.00
2023-05-14T06:32:59.987Z,501.00
2023-05-14T06:33:59.937Z,500.00
2023-05-14T06:34:59.996Z,500.00
2023-05-14T06:36:00.065Z,507.00
2023-05-14T06:37:00.100Z,500.00
2023-05-14T06:38:00.142Z,510.00
2023-05-14T06:39:00.166Z,503.00
2023-05-14T06:40:00.242Z,511.00
2023-05-14T06:41:00.252Z,505.00
2023-05-14T06:42:00.307Z,509.00
2023-05-14T06:43:00.356Z,508.00
2023-05-14T06:44:00.375Z,510.00
2023-05-14T06:45:00.435Z,503.00
2023-05-14T06:46:00.483Z,503.00
2023-05-14T06:47:00.534Z,503.00
2023-05-14T06:48:00.659Z,502.00
2023-05-14T06:49:00.684Z,500.00
2023-05-14T06:50:00.669Z,500.00
2023-05-14T06:51:00.700Z,503.00
2023-05-14T06:52:00.751Z,502.00
2023-05-14T06:53:00.781Z,500.00
2023-05-14T06:54:00.832Z,500.00
2023-05-14T06:55:00.889Z,506.00
2023-05-14T06:56:00.924Z,506.00
2023-05-14T06:57:00.969Z,517.00
2023-05-14T06:58:01.012Z,513.00
2023-05-14T06:59:01.053Z,511.00
2023-05-14T07:00:03.219Z,509.00
2023-05-14T07:01:01.136Z,510.00
2023-05-14T07:02:01.135Z,512.00
2023-05-14T07:03:01.190Z,512.00
2023-05-14T07:04:01.171Z,516.00
2023-05-14T07:05:01.169Z,511.00
2023-05-14T07:06:01.196Z,517.00
2023-05-14T07:07:01.185Z,514.00
2023-05-14T07:08:01.216Z,513.00
2023-05-14T07:09:01.224Z,516.00
2023-05-14T07:10:01.239Z,517.00
2023-05-14T07:11:01.252Z,514.00
2023-05-14T07:12:01.281Z,509.00
2023-05-14T07:13:01.293Z,510.00
2023-05-14T07:14:01.286Z,514.00
2023-05-14T07:15:01.303Z,511.00
2023-05-14T07:16:01.322Z,513.00
2023-05-14T07:17:01.365Z,504.00
2023-05-14T07:18:01.428Z,500.00
2023-05-14T07:19:01.390Z,501.00
2023-05-14T07:20:01.374Z,502.00
2023-05-14T07:21:01.392Z,503.00
2023-05-14T07:22:01.410Z,500.00
2023-05-14T07:23:01.410Z,505.00
2023-05-14T07:24:01.432Z,504.00
2023-05-14T07:25:01.438Z,510.00
2023-05-14T07:26:01.451Z,501.00
2023-05-14T07:27:01.469Z,501.00
2023-05-14T07:28:01.483Z,507.00
2023-05-14T07:29:01.496Z,505.00
2023-05-14T07:30:01.505Z,510.00
2023-05-14T07:31:01.534Z,505.00
2023-05-14T07:32:01.522Z,500.00
2023-05-14T07:33:01.574Z,507.00
2023-05-14T07:34:01.533Z,500.00
2023-05-14T07:35:01.537Z,500.00
2023-05-14T07:36:01.561Z,500.00
2023-05-14T07:37:01.576Z,500.00
2023-05-14T07:38:01.592Z,500.00
2023-05-14T07:39:01.603Z,503.00
2023-05-14T07:40:01.668Z,500.00
2023-05-14T07:41:01.648Z,502.00
2023-05-14T07:42:01.663Z,500.00
2023-05-14T07:43:01.686Z,504.00
2023-05-14T07:44:01.708Z,505.00
2023-05-14T07:45:01.716Z,505.00
2023-05-14T07:46:01.734Z,500.00
2023-05-14T07:47:01.792Z,497.00
2023-05-14T07:48:01.909Z,497.00
2023-05-14T07:49:01.796Z,503.00
2023-05-14T07:50:01.796Z,500.00
2023-05-14T07:51:01.802Z,503.00
2023-05-14T07:52:01.831Z,503.00
2023-05-14T07:53:01.860Z,492.00
2023-05-14T07:54:01.870Z,479.00
2023-05-14T07:55:01.898Z,472.00
2023-05-14T07:56:01.913Z,456.00
2023-05-14T07:57:01.936Z,500.00
2023-05-14T07:58:01.943Z,501.00
2023-05-14T07:59:02.041Z,502.00
2023-05-14T08:00:01.990Z,500.00
2023-05-14T08:01:01.985Z,500.00
2023-05-14T08:02:02.102Z,500.00
2023-05-14T08:03:02.207Z,502.00
2023-05-14T08:04:02.177Z,502.00
2023-05-14T08:05:02.133Z,501.00
2023-05-14T08:06:02.153Z,506.00
2023-05-14T08:07:02.123Z,503.00
2023-05-14T08:08:02.157Z,504.00
2023-05-14T08:09:02.143Z,500.00
2023-05-14T08:10:02.208Z,500.00
2023-05-14T08:11:02.230Z,505.00
2023-05-14T08:12:02.226Z,509.00
2023-05-14T08:13:02.291Z,517.00
2023-05-14T08:14:02.251Z,508.00
2023-05-14T08:15:02.269Z,500.00
2023-05-14T08:16:02.294Z,506.00
2023-05-14T08:17:02.391Z,503.00
2023-05-14T08:18:02.367Z,501.00
2023-05-14T08:19:02.357Z,500.00
2023-05-14T08:20:02.353Z,502.00
2023-05-14T08:21:03.685Z,503.00
2023-05-14T08:22:02.390Z,503.00
2023-05-14T08:23:02.422Z,506.00
2023-05-14T08:24:02.437Z,501.00
2023-05-14T08:25:02.474Z,507.00
2023-05-14T08:26:02.474Z,505.00
2023-05-14T08:27:02.504Z,509.00
2023-05-14T08:28:02.511Z,510.00
2023-05-14T08:29:02.538Z,504.00
2023-05-14T08:30:02.554Z,501.00
2023-05-14T08:31:02.671Z,503.00
2023-05-14T08:32:11.718Z,500.00
2023-05-14T08:33:03.663Z,496.00
2023-05-14T08:34:02.622Z,492.00
2023-05-14T08:35:02.633Z,489.00
2023-05-14T08:36:02.660Z,499.00
2023-05-14T08:37:02.667Z,492.00
2023-05-14T08:38:02.685Z,500.00
2023-05-14T08:39:02.712Z,500.00
2023-05-14T08:40:02.719Z,502.00
2023-05-14T08:41:02.721Z,507.00
2023-05-14T08:42:02.800Z,500.00
2023-05-14T08:43:02.757Z,494.00
2023-05-14T08:44:02.774Z,494.00
2023-05-14T08:45:02.808Z,495.00
2023-05-14T08:46:02.773Z,495.00
2023-05-14T08:47:02.780Z,503.00
2023-05-14T08:48:02.836Z,500.00
2023-05-14T08:49:02.839Z,509.00
2023-05-14T08:50:02.818Z,508.00
2023-05-14T08:51:02.826Z,502.00
2023-05-14T08:52:02.850Z,505.00
2023-05-14T08:53:02.848Z,506.00
2023-05-14T08:54:02.859Z,500.00
2023-05-14T08:55:02.862Z,505.00
2023-05-14T08:56:02.888Z,503.00
2023-05-14T08:57:02.903Z,506.00
2023-05-14T08:58:02.920Z,512.00
2023-05-14T08:59:02.937Z,513.00
2023-05-14T09:00:02.941Z,522.00
2023-05-14T09:01:02.987Z,520.00
2023-05-14T09:02:03.010Z,510.00
2023-05-14T09:03:03.012Z,511.00
2023-05-14T09:04:03.038Z,511.00
2023-05-14T09:05:03.014Z,515.00
2023-05-14T09:06:03.009Z,526.00
2023-05-14T09:07:03.040Z,540.00
2023-05-14T09:08:03.052Z,558.00
2023-05-14T09:09:03.046Z,575.00
2023-05-14T09:10:03.056Z,588.00
2023-05-14T09:11:03.066Z,599.00
2023-05-14T09:12:03.060Z,611.00
2023-05-14T09:13:03.108Z,625.00
2023-05-14T09:14:03.192Z,639.00
2023-05-14T09:15:03.273Z,650.00
2023-05-14T09:16:03.441Z,672.00
2023-05-14T09:17:03.432Z,707.00
2023-05-14T09:18:03.528Z,749.00
2023-05-14T09:19:03.581Z,794.00
2023-05-14T09:20:03.648Z,816.00
2023-05-14T09:21:03.739Z,865.00
2023-05-14T09:22:03.791Z,898.00
2023-05-14T09:23:03.880Z,927.00
2023-05-14T09:24:03.969Z,985.00
2023-05-14T09:25:04.038Z,990.00
2023-05-14T09:26:04.108Z,1036.00
2023-05-14T09:27:04.211Z,1065.00
2023-05-14T09:28:04.272Z,1078.00
2023-05-14T09:29:04.346Z,1119.00
2023-05-14T09:30:04.418Z,1148.00
2023-05-14T09:31:04.527Z,1173.00
2023-05-14T09:32:04.696Z,1191.00
2023-05-14T09:33:04.663Z,1222.00
2023-05-14T09:34:04.712Z,1241.00
2023-05-14T09:35:04.784Z,1294.00
2023-05-14T09:36:04.834Z,1309.00
2023-05-14T09:37:04.912Z,1333.00
2023-05-14T09:38:04.972Z,1363.00
2023-05-14T09:39:05.044Z,1382.00
2023-05-14T09:40:05.114Z,1405.00
2023-05-14T09:41:05.186Z,1417.00
2023-05-14T09:42:05.274Z,1458.00
2023-05-14T09:43:05.270Z,1458.00
2023-05-14T09:44:06.854Z,1463.00
2023-05-14T09:45:05.300Z,1475.00
2023-05-14T09:46:05.281Z,1499.00
2023-05-14T09:47:05.356Z,1554.00
2023-05-14T09:48:05.368Z,1552.00
2023-05-14T09:49:05.293Z,1594.00
2023-05-14T09:50:05.399Z,1610.00
2023-05-14T09:51:05.320Z,1630.00
2023-05-14T09:52:05.318Z,1642.00
2023-05-14T09:53:05.374Z,1661.00
2023-05-14T09:54:05.433Z,1664.00
2023-05-14T09:55:05.498Z,1689.00
2023-05-14T09:56:05.558Z,1694.00
2023-05-14T09:57:05.623Z,1712.00
2023-05-14T09:58:05.658Z,1742.00
2023-05-14T09:59:05.678Z,1743.00
2023-05-14T10:00:05.723Z,1743.00
2023-05-14T10:01:05.717Z,1748.00
2023-05-14T10:02:05.693Z,1757.00
2023-05-14T10:03:05.746Z,1789.00
2023-05-14T10:04:05.737Z,1835.00
2023-05-14T10:05:05.716Z,1835.00
2023-05-14T10:06:05.723Z,1850.00
2023-05-14T10:07:05.741Z,1839.00
2023-05-14T10:08:05.714Z,1827.00
2023-05-14T10:09:05.760Z,1862.00
2023-05-14T10:10:05.749Z,1879.00
2023-05-14T10:11:05.790Z,1894.00
2023-05-14T10:12:05.863Z,1915.00
2023-05-14T10:13:05.880Z,1910.00
2023-05-14T10:14:05.934Z,1908.00
2023-05-14T10:15:05.987Z,1928.00
2023-05-14T10:16:06.034Z,1923.00
2023-05-14T10:17:06.139Z,1940.00
2023-05-14T10:18:06.171Z,1940.00
2023-05-14T10:19:06.264Z,1956.00
2023-05-14T10:20:06.237Z,1976.00
2023-05-14T10:21:06.308Z,1988.00
2023-05-14T10:22:06.339Z,1981.00
2023-05-14T10:23:06.360Z,1972.00
2023-05-14T10:24:06.414Z,1997.00
2023-05-14T10:25:06.454Z,2007.00
2023-05-14T10:26:06.484Z,2003.00
2023-05-14T10:27:06.542Z,2006.00
2023-05-14T10:28:06.601Z,2019.00
2023-05-14T10:29:06.665Z,2007.00
2023-05-14T10:30:06.669Z,2028.00
2023-05-14T10:31:06.736Z,2045.00
2023-05-14T10:32:06.800Z,2043.00
2023-05-14T10:33:06.853Z,2036.00
2023-05-14T10:34:06.849Z,2055.00
2023-05-14T10:35:06.881Z,2050.00
2023-05-14T10:36:06.935Z,2063.00
2023-05-14T10:37:06.973Z,2065.00
2023-05-14T10:38:07.015Z,2067.00
2023-05-14T10:39:07.046Z,2061.00
2023-05-14T10:40:07.082Z,2068.00
2023-05-14T10:41:07.177Z,2061.00
2023-05-14T10:42:07.154Z,2087.00
2023-05-14T10:43:07.201Z,2081.00
2023-05-14T10:44:07.234Z,2085.00
2023-05-14T10:45:07.306Z,2091.00
2023-05-14T10:46:07.323Z,2084.00
2023-05-14T10:47:07.407Z,2105.00
2023-05-14T10:48:07.439Z,2093.00
2023-05-14T10:49:07.425Z,2102.00
2023-05-14T10:50:07.467Z,2087.00
2023-05-14T10:51:07.526Z,2116.00
2023-05-14T10:52:07.517Z,2127.00
2023-05-14T10:53:07.556Z,2113.00
2023-05-14T10:54:07.592Z,2130.00
2023-05-14T10:55:07.683Z,2110.00
2023-05-14T10:56:07.659Z,2099.00
2023-05-14T10:57:07.693Z,2115.00
2023-05-14T10:58:07.730Z,2120.00
2023-05-14T10:59:07.752Z,2111.00
2023-05-14T11:00:07.804Z,2115.00
2023-05-14T11:01:07.830Z,2102.00
2023-05-14T11:02:07.938Z,2123.00
2023-05-14T11:03:07.925Z,2125.00
2023-05-14T11:04:08.170Z,2111.00
2023-05-14T11:05:07.944Z,2108.00
2023-05-14T11:06:08.059Z,2116.00
2023-05-14T11:07:07.997Z,2128.00
2023-05-14T11:08:08.038Z,2136.00
2023-05-14T11:09:08.060Z,2137.00
2023-05-14T11:10:08.104Z,2148.00
2023-05-14T11:11:08.132Z,2133.00
2023-05-14T11:12:08.139Z,2131.00
2023-05-14T11:13:08.177Z,2134.00
2023-05-14T11:14:10.096Z,2125.00
2023-05-14T11:15:08.212Z,2141.00
2023-05-14T11:16:21.534Z,2132.00
2023-05-14T11:17:09.298Z,2133.00
2023-05-14T11:18:08.292Z,2135.00
2023-05-14T11:19:08.247Z,2130.00
2023-05-14T11:20:08.240Z,2138.00
2023-05-14T11:21:08.261Z,2141.00
2023-05-14T11:22:08.224Z,2136.00
2023-05-14T11:23:08.224Z,2121.00
2023-05-14T11:24:08.232Z,2147.00
2023-05-14T11:25:08.235Z,2153.00
2023-05-14T11:26:08.215Z,2145.00
2023-05-14T11:27:08.192Z,2150.00
2023-05-14T11:28:08.199Z,2151.00
2023-05-14T11:29:08.202Z,2128.00
2023-05-14T11:30:08.199Z,2139.00
2023-05-14T11:31:08.212Z,2147.00
2023-05-14T11:32:08.273Z,2146.00
2023-05-14T11:33:08.235Z,2137.00
2023-05-14T11:34:08.195Z,2138.00
2023-05-14T11:35:08.207Z,2139.00
2023-05-14T11:36:08.209Z,2148.00
2023-05-14T11:37:08.216Z,2152.00
2023-05-14T11:38:09.276Z,2161.00
2023-05-14T11:39:08.192Z,2175.00
2023-05-14T11:40:08.201Z,2152.00
2023-05-14T11:41:08.188Z,2140.00
2023-05-14T11:42:08.191Z,2155.00
2023-05-14T11:43:08.186Z,2148.00
2023-05-14T11:44:09.158Z,2137.00
2023-05-14T11:45:08.184Z,2150.00
2023-05-14T11:46:08.246Z,2137.00
2023-05-14T11:47:08.203Z,2157.00
2023-05-14T11:48:08.226Z,2157.00
2023-05-14T11:49:08.198Z,2158.00
2023-05-14T11:50:09.407Z,2158.00
2023-05-14T11:51:08.195Z,2161.00
2023-05-14T11:52:08.200Z,2170.00
2023-05-14T11:53:08.213Z,2160.00
2023-05-14T11:54:08.178Z,2164.00
2023-05-14T11:55:08.173Z,2166.00
2023-05-14T11:56:09.664Z,2167.00
2023-05-14T11:57:08.201Z,2169.00
2023-05-14T11:58:08.171Z,2172.00
2023-05-14T11:59:08.168Z,2149.00
2023-05-14T12:00:08.171Z,2160.00
2023-05-14T12:01:08.194Z,2160.00
2023-05-14T12:02:08.192Z,2156.00
2023-05-14T12:03:08.272Z,2166.00
2023-05-14T12:04:08.298Z,2167.00
2023-05-14T12:05:08.158Z,2167.00
2023-05-14T12:06:08.160Z,2169.00
2023-05-14T12:07:08.156Z,2169.00
2023-05-14T12:08:08.152Z,2164.00
2023-05-14T12:09:08.143Z,2164.00
2023-05-14T12:10:08.148Z,2158.00
2023-05-14T12:11:08.136Z,2167.00
2023-05-14T12:12:08.148Z,2166.00
2023-05-14T12:13:08.150Z,2147.00
2023-05-14T12:14:08.151Z,2175.00
2023-05-14T12:15:08.131Z,2172.00
2023-05-14T12:16:08.152Z,2172.00
2023-05-14T12:17:08.121Z,2170.00